createdAt,value
2019-01-29T00:00:27.210Z,95753.02
2019-01-29T00:02:28.796Z,95762.38
2019-01-29T00:04:30.393Z,95759.54
2019-01-29T00:06:31.993Z,95760.86
2019-01-29T00:08:33.633Z,95760.86
2019-01-29T00:10:35.234Z,95765.34
2019-01-29T00:12:36.832Z,95768.58
2019-01-29T00:14:38.429Z,95766.78
2019-01-29T00:16:40.025Z,95770.16
2019-01-29T00:18:41.625Z,95774.51
2019-01-29T00:20:43.306Z,95775.45
2019-01-29T00:22:44.907Z,95770.89
2019-01-29T00:24:46.637Z,95773.06
2019-01-29T00:26:48.388Z,95778.23
2019-01-29T00:28:49.986Z,95780.58
2019-01-29T00:30:51.597Z,95787.79
2019-01-29T00:32:53.221Z,95795.77
2019-01-29T00:34:54.817Z,95792.48
2019-01-29T00:36:56.419Z,95793.31
2019-01-29T00:38:58.028Z,95794.66
2019-01-29T00:40:59.615Z,95800.18
2019-01-29T00:43:01.259Z,95799.08
2019-01-29T00:45:02.857Z,95803.25
2019-01-29T00:47:04.477Z,95801.22
2019-01-29T00:49:06.067Z,95806.39
2019-01-29T00:51:07.693Z,95803.08
2019-01-29T00:53:09.283Z,95810.84
2019-01-29T00:55:10.913Z,95820.11
2019-01-29T00:57:12.513Z,95825.39
2019-01-29T00:59:14.100Z,95834.47
2019-01-29T01:01:15.730Z,95834.39
2019-01-29T01:03:17.378Z,95837.16
2019-01-29T01:05:18.979Z,95845.64
2019-01-29T01:07:20.595Z,95838.44
2019-01-29T01:09:22.194Z,95844.05
2019-01-29T01:11:23.793Z,95849.20
2019-01-29T01:13:25.391Z,95855.98
2019-01-29T01:15:27.024Z,95859.44
2019-01-29T01:17:28.636Z,95857.44
2019-01-29T01:19:30.248Z,95867.20
2019-01-29T01:21:31.853Z,95863.89
2019-01-29T01:23:33.458Z,95866.92
2019-01-29T01:25:35.049Z,95869.89
2019-01-29T01:27:36.683Z,95873.75
2019-01-29T01:29:38.300Z,95876.37
2019-01-29T01:31:39.902Z,95884.02
2019-01-29T01:33:41.537Z,95880.71
2019-01-29T01:35:43.143Z,95891.02
2019-01-29T01:37:44.732Z,95890.70
2019-01-29T01:39:46.316Z,95888.02
2019-01-29T01:41:47.928Z,95891.52
2019-01-29T01:43:49.535Z,95898.69
2019-01-29T01:45:51.172Z,95899.75
2019-01-29T01:47:52.769Z,95904.61
2019-01-29T01:49:54.376Z,95901.36
2019-01-29T01:51:55.989Z,95908.64
2019-01-29T01:53:57.600Z,95909.91
2019-01-29T01:55:59.204Z,95912.30
2019-01-29T01:58:00.837Z,95916.27
2019-01-29T02:00:02.422Z,95915.87
2019-01-29T02:02:04.021Z,95920.56
2019-01-29T02:04:05.628Z,95921.84
2019-01-29T02:06:07.279Z,95924.88
2019-01-29T02:08:08.864Z,95926.44
2019-01-29T02:10:10.461Z,95930.45
2019-01-29T02:12:12.053Z,95928.69
2019-01-29T02:14:13.650Z,95938.14
2019-01-29T02:16:15.294Z,95936.86
2019-01-29T02:18:16.899Z,95935.82
2019-01-29T02:20:18.498Z,95938.52
2019-01-29T02:22:20.148Z,95939.19
2019-01-29T02:24:21.765Z,95945.60
2019-01-29T02:26:23.362Z,95946.87
2019-01-29T02:28:24.997Z,95955.09
2019-01-29T02:30:26.590Z,95953.27
2019-01-29T02:32:28.190Z,95964.27
2019-01-29T02:34:29.800Z,95964.61
2019-01-29T02:36:31.403Z,95966.55
2019-01-29T02:38:33.003Z,95968.63
2019-01-29T02:40:34.602Z,95981.22
2019-01-29T02:42:36.237Z,95982.27
2019-01-29T02:44:37.833Z,95988.42
2019-01-29T02:46:39.429Z,95995.83
2019-01-29T02:48:41.031Z,95995.56
2019-01-29T02:50:42.644Z,96000.16
2019-01-29T02:52:44.256Z,96014.55
2019-01-29T02:54:45.896Z,96011.11
2019-01-29T02:56:47.505Z,95982.08
2019-01-29T02:58:49.105Z,96019.59
2019-01-29T03:00:50.749Z,96012.28
2019-01-29T03:02:52.345Z,96018.98
2019-01-29T03:04:53.962Z,96025.78
2019-01-29T03:06:55.560Z,96019.84
2019-01-29T03:08:57.168Z,96028.78
2019-01-29T03:10:58.763Z,96033.89
2019-01-29T03:13:00.406Z,96036.82
2019-01-29T03:15:02.030Z,96045.75
2019-01-29T03:17:03.634Z,96051.24
2019-01-29T03:19:05.236Z,96051.18
2019-01-29T03:21:06.848Z,96053.03
2019-01-29T03:23:08.449Z,96065.57
2019-01-29T03:25:10.062Z,96064.58
2019-01-29T03:27:11.684Z,96070.83
2019-01-29T03:29:13.286Z,96076.37
2019-01-29T03:31:14.922Z,96081.20
2019-01-29T03:33:16.907Z,96079.06
2019-01-29T03:35:18.507Z,96080.02
2019-01-29T03:37:20.186Z,96087.89
2019-01-29T03:39:21.771Z,96087.89
2019-01-29T03:41:23.431Z,96099.53
2019-01-29T03:43:25.067Z,96099.08
2019-01-29T03:45:26.707Z,96100.59
2019-01-29T03:47:28.324Z,96101.98
2019-01-29T03:49:29.918Z,96106.44
2019-01-29T03:51:31.536Z,96107.93
2019-01-29T03:53:38.195Z,96113.03
2019-01-29T03:55:34.800Z,96114.94
2019-01-29T03:57:36.397Z,96123.97
2019-01-29T03:59:37.983Z,96128.99
2019-01-29T04:01:39.621Z,96130.11
2019-01-29T04:03:41.223Z,96127.56
2019-01-29T04:05:42.819Z,96140.01
2019-01-29T04:07:44.459Z,96130.64
2019-01-29T04:09:46.043Z,96134.58
2019-01-29T04:11:47.643Z,96136.17
2019-01-29T04:13:49.242Z,96137.70
2019-01-29T04:15:50.847Z,96143.03
2019-01-29T04:17:52.466Z,96145.40
2019-01-29T04:19:54.089Z,96149.98
2019-01-29T04:21:55.686Z,96149.83
2019-01-29T04:23:57.282Z,96151.84
2019-01-29T04:25:58.909Z,96161.00
2019-01-29T04:28:00.502Z,96159.66
2019-01-29T04:30:02.097Z,96167.16
2019-01-29T04:32:03.730Z,96160.45
2019-01-29T04:34:05.713Z,96167.45
2019-01-29T04:36:07.333Z,96179.77
2019-01-29T04:38:08.963Z,96178.97
2019-01-29T04:40:10.555Z,96186.42
2019-01-29T04:42:12.179Z,96189.26
2019-01-29T04:44:13.779Z,96194.48
2019-01-29T04:46:15.379Z,96191.25
2019-01-29T04:48:17.012Z,96189.80
2019-01-29T04:50:18.596Z,96201.95
2019-01-29T04:52:20.184Z,96204.35
2019-01-29T04:54:21.806Z,96205.75
2019-01-29T04:56:23.414Z,96177.56
2019-01-29T04:58:25.008Z,96208.66
2019-01-29T05:00:26.601Z,96218.63
2019-01-29T05:02:28.261Z,96220.08
2019-01-29T05:04:29.857Z,96216.81
2019-01-29T05:06:31.457Z,96226.42
2019-01-29T05:08:33.055Z,96227.98
2019-01-29T05:10:34.658Z,96231.33
2019-01-29T05:12:36.260Z,96233.19
2019-01-29T05:14:37.893Z,96232.70
2019-01-29T05:16:39.486Z,96241.02
2019-01-29T05:18:41.080Z,96247.56
2019-01-29T05:20:42.721Z,96239.42
2019-01-29T05:22:44.317Z,96248.12
2019-01-29T05:24:45.913Z,96257.95
2019-01-29T05:26:47.583Z,96254.66
2019-01-29T05:28:49.190Z,96263.11
2019-01-29T05:30:50.790Z,96263.05
2019-01-29T05:32:52.412Z,96264.72
2019-01-29T05:34:54.027Z,96271.17
2019-01-29T05:36:55.641Z,96277.39
2019-01-29T05:38:57.257Z,96277.08
2019-01-29T05:40:58.850Z,96283.59
2019-01-29T05:43:00.445Z,96280.31
2019-01-29T05:45:02.080Z,96284.66
2019-01-29T05:47:03.717Z,96280.05
2019-01-29T05:49:05.310Z,96272.91
2019-01-29T05:51:06.916Z,96274.37
2019-01-29T05:53:08.537Z,96271.53
2019-01-29T05:55:10.149Z,96269.25
2019-01-29T05:57:11.778Z,96277.11
2019-01-29T05:59:13.388Z,96278.12
2019-01-29T06:01:14.995Z,96284.77
2019-01-29T06:03:16.603Z,96293.59
2019-01-29T06:05:18.259Z,96290.20
2019-01-29T06:07:19.858Z,96288.45
2019-01-29T06:09:21.457Z,96298.22
2019-01-29T06:11:23.066Z,96288.45
2019-01-29T06:13:24.662Z,96289.87
2019-01-29T06:15:26.263Z,96297.71
2019-01-29T06:17:27.895Z,96293.14
2019-01-29T06:19:29.505Z,96297.95
2019-01-29T06:21:31.252Z,96304.05
2019-01-29T06:23:32.846Z,96302.15
2019-01-29T06:25:34.442Z,96308.17
2019-01-29T06:27:36.052Z,96306.59
2019-01-29T06:29:37.645Z,96319.55
2019-01-29T06:31:39.251Z,96314.17
2019-01-29T06:33:40.864Z,96319.86
2019-01-29T06:35:42.461Z,96321.20
2019-01-29T06:37:44.057Z,96329.05
2019-01-29T06:39:45.693Z,96331.68
2019-01-29T06:41:47.299Z,96335.14
2019-01-29T06:43:48.902Z,96344.60
2019-01-29T06:45:50.502Z,96347.77
2019-01-29T06:47:52.102Z,96349.92
2019-01-29T06:49:53.716Z,96369.08
2019-01-29T06:51:55.324Z,96364.53
2019-01-29T06:53:56.911Z,96372.30
2019-01-29T06:55:58.537Z,96384.30
2019-01-29T06:58:00.167Z,96390.23
2019-01-29T07:00:01.772Z,96390.23
2019-01-29T07:02:03.382Z,96384.30
2019-01-29T07:04:04.995Z,96397.33
2019-01-29T07:06:06.589Z,96391.39
2019-01-29T07:08:08.200Z,96396.39
2019-01-29T07:10:09.793Z,96407.73
2019-01-29T07:12:11.386Z,96406.20
2019-01-29T07:14:12.999Z,96405.05
2019-01-29T07:16:19.313Z,96411.59
2019-01-29T07:18:26.509Z,96415.14
2019-01-29T07:20:28.120Z,96421.64
2019-01-29T07:22:29.707Z,96430.81
2019-01-29T07:24:31.310Z,96430.66
2019-01-29T07:26:32.920Z,96438.59
2019-01-29T07:28:34.517Z,96446.66
2019-01-29T07:30:36.158Z,96445.30
2019-01-29T07:32:37.757Z,96457.98
2019-01-29T07:34:39.339Z,96466.02
2019-01-29T07:36:40.925Z,96457.59
2019-01-29T07:38:42.536Z,96471.27
2019-01-29T07:40:44.157Z,96464.61
2019-01-29T07:42:45.766Z,96470.27
2019-01-29T07:44:47.361Z,96465.37
2019-01-29T07:46:48.953Z,96471.78
2019-01-29T07:48:50.537Z,96473.25
2019-01-29T07:50:52.137Z,96475.00
2019-01-29T07:52:53.842Z,96482.04
2019-01-29T07:54:55.452Z,96480.84
2019-01-29T07:56:57.049Z,96489.88
2019-01-29T07:58:58.655Z,96491.65
2019-01-29T08:01:00.254Z,96500.25
2019-01-29T08:03:01.888Z,96500.77
2019-01-29T08:05:03.497Z,96500.92
2019-01-29T08:07:05.093Z,96506.58
2019-01-29T08:09:06.680Z,96509.25
2019-01-29T08:11:08.273Z,96508.92
2019-01-29T08:13:09.884Z,96509.86
2019-01-29T08:15:11.496Z,96510.72
2019-01-29T08:17:13.117Z,96515.84
2019-01-29T08:19:14.709Z,96520.50
2019-01-29T08:21:16.319Z,96518.37
2019-01-29T08:23:17.904Z,96523.03
2019-01-29T08:25:19.511Z,96522.53
2019-01-29T08:27:21.106Z,96529.66
2019-01-29T08:29:22.702Z,96529.09
2019-01-29T08:31:24.293Z,96530.68
2019-01-29T08:33:25.900Z,96530.86
2019-01-29T08:35:27.507Z,96528.46
2019-01-29T08:37:29.106Z,96530.33
2019-01-29T08:39:30.715Z,96526.66
2019-01-29T08:41:32.339Z,96522.64
2019-01-29T08:43:33.952Z,96519.84
2019-01-29T08:45:35.568Z,96524.76
2019-01-29T08:47:37.190Z,96520.74
2019-01-29T08:49:38.793Z,96523.63
2019-01-29T08:51:40.390Z,96525.73
2019-01-29T08:53:41.975Z,96522.74
2019-01-29T08:55:43.560Z,96534.23
2019-01-29T08:57:45.155Z,96541.47
2019-01-29T08:59:46.749Z,96543.33
2019-01-29T09:01:49.198Z,96551.51
2019-01-29T09:03:50.784Z,96552.92
2019-01-29T09:05:52.382Z,96558.48
2019-01-29T09:07:56.582Z,96562.01
2019-01-29T09:09:58.182Z,96566.86
2019-01-29T09:11:59.812Z,96561.83
2019-01-29T09:14:01.434Z,96571.73
2019-01-29T09:16:03.033Z,96573.11
2019-01-29T09:18:04.670Z,96568.09
2019-01-29T09:20:06.265Z,96569.41
2019-01-29T09:22:07.857Z,96571.05
2019-01-29T09:24:09.518Z,96572.20
2019-01-29T09:26:11.132Z,96585.41
2019-01-29T09:28:18.386Z,96582.45
2019-01-29T09:30:14.455Z,96583.99
2019-01-29T09:32:16.072Z,96585.38
2019-01-29T09:34:18.214Z,96588.86
2019-01-29T09:36:19.819Z,96593.63
2019-01-29T09:38:21.467Z,96592.67
2019-01-29T09:40:23.071Z,96601.13
2019-01-29T09:42:25.200Z,96599.80
2019-01-29T09:44:26.441Z,96599.78
2019-01-29T09:46:28.034Z,96604.36
2019-01-29T09:48:29.675Z,96600.53
2019-01-29T09:50:31.362Z,96590.74
2019-01-29T09:52:32.994Z,96602.64
2019-01-29T09:54:34.590Z,96611.18
2019-01-29T09:56:36.195Z,96606.94
2019-01-29T09:58:37.818Z,96607.69
2019-01-29T10:00:39.413Z,96613.16
2019-01-29T10:02:41.002Z,96614.56
2019-01-29T10:04:42.597Z,96614.85
2019-01-29T10:06:44.200Z,96611.86
2019-01-29T10:08:45.794Z,96614.17
2019-01-29T10:10:47.426Z,96607.45
2019-01-29T10:12:49.030Z,96609.25
2019-01-29T10:14:50.616Z,96618.19
2019-01-29T10:16:52.223Z,96617.87
2019-01-29T10:18:53.825Z,96617.61
2019-01-29T10:20:55.426Z,96617.35
2019-01-29T10:22:57.050Z,96619.06
2019-01-29T10:24:58.650Z,96610.43
2019-01-29T10:27:00.245Z,96620.12
2019-01-29T10:29:01.841Z,96620.77
2019-01-29T10:31:03.433Z,96621.34
2019-01-29T10:33:05.083Z,96615.53
2019-01-29T10:35:06.695Z,96617.77
2019-01-29T10:37:08.305Z,96612.33
2019-01-29T10:39:09.901Z,96607.69
2019-01-29T10:41:11.512Z,96613.81
2019-01-29T10:43:13.105Z,96608.65
2019-01-29T10:45:14.737Z,96609.61
2019-01-29T10:47:16.505Z,96593.43
2019-01-29T10:49:18.128Z,96612.19
2019-01-29T10:51:19.726Z,96602.50
2019-01-29T10:53:21.368Z,96605.08
2019-01-29T10:55:22.966Z,96605.47
2019-01-29T10:57:24.563Z,96604.23
2019-01-29T10:59:26.184Z,96601.80
2019-01-29T11:01:27.791Z,96596.41
2019-01-29T11:03:29.372Z,96600.30
2019-01-29T11:05:31.098Z,96597.13
2019-01-29T11:07:32.663Z,96589.44
2019-01-29T11:09:34.258Z,96596.25
2019-01-29T11:11:35.899Z,96588.58
2019-01-29T11:13:37.512Z,96586.98
2019-01-29T11:15:39.140Z,96591.16
2019-01-29T11:17:40.769Z,96590.69
2019-01-29T11:19:42.352Z,96597.30
2019-01-29T11:21:43.946Z,96596.16
2019-01-29T11:23:46.045Z,96590.80
2019-01-29T11:25:55.427Z,96598.16
2019-01-29T11:27:49.408Z,96594.48
2019-01-29T11:29:51.075Z,96594.72
2019-01-29T11:31:52.688Z,96594.16
2019-01-29T11:33:54.280Z,96600.55
2019-01-29T11:35:55.933Z,96594.58
2019-01-29T11:37:57.521Z,96597.50
2019-01-29T11:39:59.127Z,96603.05
2019-01-29T11:42:00.765Z,96600.47
2019-01-29T11:44:02.375Z,96600.10
2019-01-29T11:46:04.036Z,96593.41
2019-01-29T11:48:05.639Z,96600.30
2019-01-29T11:50:07.308Z,96597.77
2019-01-29T11:52:08.915Z,96594.04
2019-01-29T11:54:10.524Z,96598.73
2019-01-29T11:56:12.135Z,96592.45
2019-01-29T11:58:13.767Z,96587.48
2019-01-29T12:00:15.357Z,96590.16
2019-01-29T12:02:16.977Z,96587.74
2019-01-29T12:04:18.573Z,96589.17
2019-01-29T12:06:20.183Z,96597.80
2019-01-29T12:08:21.778Z,96589.88
2019-01-29T12:10:23.418Z,96594.72
2019-01-29T12:12:25.013Z,96594.28
2019-01-29T12:14:26.622Z,96598.58
2019-01-29T12:16:28.223Z,96603.00
2019-01-29T12:18:29.871Z,96590.71
2019-01-29T12:20:31.483Z,96598.86
2019-01-29T12:22:33.096Z,96596.36
2019-01-29T12:24:34.780Z,96599.02
2019-01-29T12:26:36.382Z,96597.30
2019-01-29T12:28:37.991Z,96596.86
2019-01-29T12:30:39.593Z,96597.40
2019-01-29T12:32:41.190Z,96602.08
2019-01-29T12:34:42.800Z,96602.50
2019-01-29T12:36:44.411Z,96599.89
2019-01-29T12:38:46.064Z,96599.89
2019-01-29T12:40:47.666Z,96607.50
2019-01-29T12:42:49.284Z,96611.64
2019-01-29T12:44:50.940Z,96602.06
2019-01-29T12:46:52.553Z,96600.95
2019-01-29T12:48:54.167Z,96597.33
2019-01-29T12:50:55.805Z,96597.98
2019-01-29T12:52:59.950Z,96562.20
2019-01-29T12:55:01.566Z,96600.55
2019-01-29T12:57:03.229Z,96609.37
2019-01-29T12:59:04.834Z,96608.39
2019-01-29T13:01:06.473Z,96602.30
2019-01-29T13:03:08.091Z,96605.66
2019-01-29T13:05:09.721Z,96597.08
2019-01-29T13:07:11.454Z,96599.58
2019-01-29T13:09:13.055Z,96597.58
2019-01-29T13:11:14.668Z,96593.80
2019-01-29T13:13:16.319Z,96580.79
2019-01-29T13:15:17.917Z,96593.55
2019-01-29T13:17:19.510Z,96591.09
2019-01-29T13:19:21.111Z,96600.60
2019-01-29T13:21:22.715Z,96583.76
2019-01-29T13:23:24.318Z,96588.16
2019-01-29T13:25:26.005Z,96588.69
2019-01-29T13:27:27.620Z,96552.36
2019-01-29T13:29:29.318Z,96589.02
2019-01-29T13:31:31.420Z,96590.42
2019-01-29T13:33:33.056Z,96590.89
2019-01-29T13:35:34.654Z,96582.02
2019-01-29T13:37:36.292Z,96594.17
2019-01-29T13:39:37.929Z,96594.43
2019-01-29T13:41:39.533Z,96601.87
2019-01-29T13:43:41.130Z,96595.80
2019-01-29T13:45:42.745Z,96602.80
2019-01-29T13:47:44.420Z,96591.56
2019-01-29T13:49:46.035Z,96599.44
2019-01-29T13:51:47.653Z,96596.23
2019-01-29T13:53:49.292Z,96595.09
2019-01-29T13:55:50.893Z,96599.83
2019-01-29T13:57:52.489Z,96597.26
2019-01-29T13:59:54.096Z,96599.34
2019-01-29T14:01:57.674Z,96604.64
2019-01-29T14:04:05.807Z,96601.47
2019-01-29T14:05:59.061Z,96601.20
2019-01-29T14:08:00.679Z,96603.97
2019-01-29T14:10:02.277Z,96604.91
2019-01-29T14:12:03.933Z,96602.42
2019-01-29T14:14:05.530Z,96600.45
2019-01-29T14:16:07.144Z,96601.95
2019-01-29T14:18:08.949Z,96605.50
2019-01-29T14:20:10.606Z,96609.02
2019-01-29T14:22:12.241Z,96609.09
2019-01-29T14:24:13.838Z,96611.10
2019-01-29T14:26:15.451Z,96606.83
2019-01-29T14:28:17.053Z,96608.68
2019-01-29T14:30:18.694Z,96607.79
2019-01-29T14:32:20.290Z,96611.06
2019-01-29T14:34:21.930Z,96608.07
2019-01-29T14:36:23.533Z,96611.13
2019-01-29T14:38:25.120Z,96610.89
2019-01-29T14:40:26.736Z,96615.22
2019-01-29T14:42:28.334Z,96612.42
2019-01-29T14:44:29.952Z,96616.01
2019-01-29T14:46:31.549Z,96614.87
2019-01-29T14:48:33.215Z,96615.84
2019-01-29T14:50:34.853Z,96614.00
2019-01-29T14:52:36.454Z,96617.37
2019-01-29T14:54:38.049Z,96613.25
2019-01-29T14:56:39.633Z,96613.02
2019-01-29T14:58:41.278Z,96609.63
2019-01-29T15:00:42.942Z,96613.09
2019-01-29T15:02:44.613Z,96611.12
2019-01-29T15:04:46.264Z,96606.09
2019-01-29T15:06:47.903Z,96608.86
2019-01-29T15:08:49.512Z,96607.66
2019-01-29T15:10:51.182Z,96605.52
2019-01-29T15:12:52.799Z,96608.67
2019-01-29T15:14:54.460Z,96611.92
2019-01-29T15:16:56.100Z,96614.09
2019-01-29T15:18:58.436Z,96613.00
2019-01-29T15:21:00.038Z,96610.09
2019-01-29T15:23:01.647Z,96613.84
2019-01-29T15:25:03.277Z,96618.30
2019-01-29T15:27:05.973Z,96619.52
2019-01-29T15:29:06.515Z,96621.02
2019-01-29T15:31:08.152Z,96612.94
2019-01-29T15:33:09.751Z,96621.95
2019-01-29T15:35:11.363Z,96621.51
2019-01-29T15:37:13.018Z,96626.66
2019-01-29T15:39:14.675Z,96620.95
2019-01-29T15:41:16.269Z,96617.13
2019-01-29T15:43:17.865Z,96620.56
2019-01-29T15:45:19.462Z,96618.77
2019-01-29T15:47:21.068Z,96623.44
2019-01-29T15:49:22.661Z,96625.70
2019-01-29T15:51:24.297Z,96620.25
2019-01-29T15:53:25.893Z,96619.50
2019-01-29T15:55:27.490Z,96612.52
2019-01-29T15:57:29.096Z,96618.56
2019-01-29T15:59:30.694Z,96614.66
2019-01-29T16:01:32.313Z,96614.39
2019-01-29T16:03:33.913Z,96615.70
2019-01-29T16:05:35.549Z,96614.20
2019-01-29T16:07:37.148Z,96612.16
2019-01-29T16:09:38.746Z,96617.62
2019-01-29T16:11:40.385Z,96616.28
2019-01-29T16:13:41.995Z,96620.86
2019-01-29T16:15:43.581Z,96623.56
2019-01-29T16:17:45.173Z,96625.66
2019-01-29T16:19:46.769Z,96624.52
2019-01-29T16:21:48.371Z,96625.12
2019-01-29T16:23:50.020Z,96622.25
2019-01-29T16:25:51.643Z,96623.72
2019-01-29T16:27:53.242Z,96624.04
2019-01-29T16:29:54.851Z,96619.95
2019-01-29T16:31:56.463Z,96621.85
2019-01-29T16:33:58.072Z,96620.16
2019-01-29T16:35:59.716Z,96614.84
2019-01-29T16:38:01.332Z,96625.86
2019-01-29T16:40:02.940Z,96622.80
2019-01-29T16:42:04.556Z,96617.70
2019-01-29T16:44:06.204Z,96618.84
2019-01-29T16:46:07.849Z,96616.43
2019-01-29T16:48:09.461Z,96617.87
2019-01-29T16:50:11.079Z,96607.84
2019-01-29T16:52:12.690Z,96611.50
2019-01-29T16:54:14.329Z,96610.00
2019-01-29T16:56:15.989Z,96614.33
2019-01-29T16:58:17.601Z,96606.25
2019-01-29T17:00:19.197Z,96604.88
2019-01-29T17:02:20.812Z,96611.88
2019-01-29T17:04:22.400Z,96610.18
2019-01-29T17:06:23.994Z,96609.19
2019-01-29T17:08:25.640Z,96612.91
2019-01-29T17:10:27.280Z,96612.27
2019-01-29T17:12:28.889Z,96612.82
2019-01-29T17:14:30.500Z,96612.74
2019-01-29T17:16:32.156Z,96612.19
2019-01-29T17:18:33.767Z,96616.75
2019-01-29T17:20:35.365Z,96621.38
2019-01-29T17:22:36.961Z,96615.55
2019-01-29T17:24:38.562Z,96618.45
2019-01-29T17:26:40.176Z,96620.95
2019-01-29T17:28:41.802Z,96617.12
2019-01-29T17:30:43.409Z,96614.63
2019-01-29T17:32:44.995Z,96614.41
2019-01-29T17:34:46.595Z,96617.23
2019-01-29T17:36:48.204Z,96617.02
2019-01-29T17:38:49.937Z,96618.52
2019-01-29T17:40:51.538Z,96608.72
2019-01-29T17:42:53.168Z,96608.14
2019-01-29T17:44:54.780Z,96607.44
2019-01-29T17:46:56.377Z,96603.98
2019-01-29T17:48:57.980Z,96605.94
2019-01-29T17:50:59.699Z,96613.88
2019-01-29T17:53:01.375Z,96614.20
2019-01-29T17:55:03.008Z,96602.59
2019-01-29T17:57:04.594Z,96595.27
2019-01-29T17:59:06.200Z,96600.58
2019-01-29T18:01:07.826Z,96599.50
2019-01-29T18:03:09.444Z,96594.91
2019-01-29T18:05:11.055Z,96593.52
2019-01-29T18:07:12.667Z,96593.49
2019-01-29T18:09:14.271Z,96588.11
2019-01-29T18:11:15.894Z,96590.62
2019-01-29T18:13:17.489Z,96582.68
2019-01-29T18:15:19.120Z,96586.23
2019-01-29T18:17:20.715Z,96587.70
2019-01-29T18:19:22.299Z,96591.39
2019-01-29T18:21:23.949Z,96594.56
2019-01-29T18:23:25.546Z,96602.70
2019-01-29T18:25:27.142Z,96604.30
2019-01-29T18:27:28.737Z,96601.64
2019-01-29T18:29:30.333Z,96600.65
2019-01-29T18:31:31.954Z,96562.77
2019-01-29T18:33:33.590Z,96597.16
2019-01-29T18:35:35.186Z,96612.01
2019-01-29T18:37:36.795Z,96609.34
2019-01-29T18:39:38.414Z,96606.89
2019-01-29T18:41:40.030Z,96606.09
2019-01-29T18:43:41.633Z,96602.67
2019-01-29T18:45:43.243Z,96604.59
2019-01-29T18:47:44.889Z,96601.29
2019-01-29T18:49:46.494Z,96616.86
2019-01-29T18:51:48.099Z,96606.86
2019-01-29T18:53:49.714Z,96600.74
2019-01-29T18:55:51.314Z,96617.02
2019-01-29T18:57:53.199Z,96597.84
2019-01-29T18:59:54.900Z,96594.80
2019-01-29T19:01:56.561Z,96596.34
2019-01-29T19:03:58.161Z,96593.60
2019-01-29T19:05:59.760Z,96563.20
2019-01-29T19:08:01.396Z,96586.75
2019-01-29T19:10:03.015Z,96593.83
2019-01-29T19:12:04.668Z,96595.08
2019-01-29T19:14:06.251Z,96592.83
2019-01-29T19:16:07.887Z,96589.97
2019-01-29T19:18:09.472Z,96588.69
2019-01-29T19:20:11.066Z,96586.13
2019-01-29T19:22:12.691Z,96589.60
2019-01-29T19:24:14.309Z,96591.77
2019-01-29T19:26:15.911Z,96587.63
2019-01-29T19:28:22.248Z,96594.77
2019-01-29T19:30:19.239Z,96593.02
2019-01-29T19:32:20.838Z,96589.86
2019-01-29T19:34:22.433Z,96573.08
2019-01-29T19:36:24.077Z,96594.43
2019-01-29T19:38:25.823Z,96601.92
2019-01-29T19:40:27.595Z,96595.12
2019-01-29T19:42:29.302Z,96593.66
2019-01-29T19:44:30.920Z,96558.22
2019-01-29T19:46:32.517Z,96591.42
2019-01-29T19:48:34.165Z,96589.94
2019-01-29T19:50:35.775Z,96589.44
2019-01-29T19:52:37.370Z,96578.45
2019-01-29T19:54:38.980Z,96590.50
2019-01-29T19:56:40.583Z,96585.69
2019-01-29T19:58:42.181Z,96593.88
2019-01-29T20:00:43.802Z,96583.16
2019-01-29T20:02:45.468Z,96587.80
2019-01-29T20:04:47.055Z,96582.26
2019-01-29T20:06:48.650Z,96582.72
2019-01-29T20:08:50.318Z,96579.26
2019-01-29T20:10:51.913Z,96580.95
2019-01-29T20:12:53.503Z,96578.14
2019-01-29T20:14:55.119Z,96583.36
2019-01-29T20:16:56.820Z,96574.16
2019-01-29T20:18:58.431Z,96577.20
2019-01-29T20:21:00.188Z,96576.70
2019-01-29T20:23:08.206Z,96577.94
2019-01-29T20:25:03.444Z,96543.42
2019-01-29T20:27:05.056Z,96566.58
2019-01-29T20:29:06.662Z,96570.00
2019-01-29T20:31:08.252Z,96565.67
2019-01-29T20:33:09.891Z,96568.11
2019-01-29T20:35:11.511Z,96561.80
2019-01-29T20:37:13.128Z,96562.19
2019-01-29T20:39:14.729Z,96555.59
2019-01-29T20:41:16.349Z,96555.17
2019-01-29T20:43:17.973Z,96548.51
2019-01-29T20:45:19.575Z,96550.32
2019-01-29T20:47:21.183Z,96550.95
2019-01-29T20:49:22.782Z,96546.18
2019-01-29T20:51:24.373Z,96545.68
2019-01-29T20:53:25.976Z,96544.36
2019-01-29T20:55:27.602Z,96557.39
2019-01-29T20:57:29.197Z,96542.98
2019-01-29T20:59:30.839Z,96546.66
2019-01-29T21:01:32.444Z,96540.86
2019-01-29T21:03:34.175Z,96545.14
2019-01-29T21:05:35.769Z,96537.80
2019-01-29T21:07:37.352Z,96535.00
2019-01-29T21:09:38.959Z,96530.61
2019-01-29T21:11:40.550Z,96529.13
2019-01-29T21:13:42.160Z,96532.00
2019-01-29T21:15:43.768Z,96521.53
2019-01-29T21:17:45.412Z,96515.00
2019-01-29T21:19:47.009Z,96508.52
2019-01-29T21:21:48.606Z,96509.99
2019-01-29T21:23:50.229Z,96514.06
2019-01-29T21:25:51.812Z,96516.03
2019-01-29T21:27:53.424Z,96511.10
2019-01-29T21:29:55.022Z,96511.33
2019-01-29T21:31:56.672Z,96506.85
2019-01-29T21:33:58.288Z,96508.08
2019-01-29T21:35:59.927Z,96512.86
2019-01-29T21:38:01.532Z,96512.75
2019-01-29T21:40:03.163Z,96511.98
2019-01-29T21:42:04.809Z,96507.71
2019-01-29T21:44:06.424Z,96511.94
2019-01-29T21:46:08.018Z,96508.72
2019-01-29T21:48:09.638Z,96504.70
2019-01-29T21:50:11.763Z,96497.02
2019-01-29T21:52:12.900Z,96492.12
2019-01-29T21:54:14.513Z,96499.00
2019-01-29T21:56:16.194Z,96492.37
2019-01-29T21:58:17.779Z,96488.30
2019-01-29T22:00:19.379Z,96484.20
2019-01-29T22:02:20.972Z,96485.75
2019-01-29T22:04:22.556Z,96483.97
2019-01-29T22:06:24.187Z,96485.58
2019-01-29T22:08:25.804Z,96481.59
2019-01-29T22:10:27.401Z,96491.89
2019-01-29T22:12:28.983Z,96483.86
2019-01-29T22:14:30.578Z,96487.09
2019-01-29T22:16:32.169Z,96486.14
2019-01-29T22:18:33.768Z,96487.54
2019-01-29T22:20:35.362Z,96483.97
2019-01-29T22:22:36.987Z,96477.39
2019-01-29T22:24:38.679Z,96483.37
2019-01-29T22:26:40.342Z,96484.84
2019-01-29T22:28:41.947Z,96484.02
2019-01-29T22:30:43.592Z,96484.29
2019-01-29T22:32:45.203Z,96483.97
2019-01-29T22:34:47.312Z,96483.28
2019-01-29T22:36:48.967Z,96478.95
2019-01-29T22:38:50.561Z,96476.16
2019-01-29T22:40:52.169Z,96482.82
2019-01-29T22:42:53.902Z,96475.45
2019-01-29T22:44:55.458Z,96473.13
2019-01-29T22:46:57.053Z,96469.56
2019-01-29T22:48:58.701Z,96466.06
2019-01-29T22:51:00.302Z,96464.13
2019-01-29T22:53:01.897Z,96463.97
2019-01-29T22:55:03.532Z,96459.92
2019-01-29T22:57:05.132Z,96459.13
2019-01-29T22:59:06.729Z,96455.44
2019-01-29T23:01:08.367Z,96454.72
2019-01-29T23:03:09.953Z,96451.45
2019-01-29T23:05:11.564Z,96450.65
2019-01-29T23:07:13.216Z,96445.19
2019-01-29T23:09:14.827Z,96447.94
2019-01-29T23:11:16.421Z,96451.53
2019-01-29T23:13:18.014Z,96446.97
2019-01-29T23:15:19.627Z,96442.72
2019-01-29T23:17:21.231Z,96436.30
2019-01-29T23:19:22.880Z,96431.49
2019-01-29T23:21:24.480Z,96431.81
2019-01-29T23:23:26.073Z,96436.52
2019-01-29T23:25:27.675Z,96435.89
2019-01-29T23:27:29.279Z,96422.39
2019-01-29T23:29:30.885Z,96425.42
2019-01-29T23:31:32.521Z,96419.54
2019-01-29T23:33:34.109Z,96426.43
2019-01-29T23:35:35.720Z,96423.08
2019-01-29T23:37:37.362Z,96424.71
2019-01-29T23:39:38.958Z,96418.77
2019-01-29T23:41:40.540Z,96422.12
2019-01-29T23:43:42.122Z,96418.41
2019-01-29T23:45:43.731Z,96416.16
2019-01-29T23:47:45.353Z,96407.01